createdAt,value
2018-09-04T00:00:31.893Z,24.3
2018-09-04T00:01:22.818Z,24.3
2018-09-04T00:02:12.299Z,24.3
2018-09-04T00:03:02.715Z,24.3
2018-09-04T00:03:52.523Z,24.3
2018-09-04T00:04:43.616Z,24.3
2018-09-04T00:05:33.468Z,24.3
2018-09-04T00:06:22.972Z,24.3
2018-09-04T00:07:13.292Z,24.3
2018-09-04T00:08:03.588Z,24.3
2018-09-04T00:08:53.915Z,24.3
2018-09-04T00:09:43.509Z,24.3
2018-09-04T00:10:33.906Z,24.3
2018-09-04T00:11:23.623Z,24.3
2018-09-04T00:12:13.673Z,24.3
2018-09-04T00:31:44.856Z,24.3
2018-09-04T00:32:35.333Z,24.3
2018-09-04T00:33:25.037Z,24.3
2018-09-04T00:34:15.944Z,24.3
2018-09-04T00:35:05.166Z,24.3
2018-09-04T00:35:55.483Z,24.3
2018-09-04T00:36:45.039Z,24.3
2018-09-04T00:37:34.191Z,24.3
2018-09-04T00:38:25.371Z,24.3
2018-09-04T00:39:16.316Z,24.3
2018-09-04T00:40:05.824Z,24.3
2018-09-04T00:40:56.151Z,24.3
2018-09-04T00:41:46.471Z,24.3
2018-09-04T00:42:36.341Z,24.3
2018-09-04T00:43:26.625Z,24.3
2018-09-04T00:44:15.505Z,24.3
2018-09-04T00:45:05.938Z,24.3
2018-09-04T00:45:55.955Z,24.3
2018-09-04T00:46:46.413Z,24.3
2018-09-04T00:47:36.393Z,24.3
2018-09-04T00:48:25.850Z,24.3
2018-09-04T00:49:16.260Z,24.3
2018-09-04T00:50:06.037Z,24.3
2018-09-04T00:50:55.775Z,24.3
2018-09-04T00:51:47.182Z,24.3
2018-09-04T00:52:36.278Z,24.3
2018-09-04T00:53:26.282Z,24.3
2018-09-04T00:54:16.317Z,24.3
2018-09-04T00:55:06.640Z,24.3
2018-09-04T00:55:56.257Z,24.3
2018-09-04T00:56:46.387Z,24.3
2018-09-04T00:57:37.398Z,24.3
2018-09-04T00:58:26.984Z,24.3
2018-09-04T00:59:16.746Z,24.3
2018-09-04T01:00:07.779Z,24.3
2018-09-04T01:00:57.417Z,24.3
2018-09-04T01:01:47.497Z,24.3
2018-09-04T01:02:36.962Z,24.3
2018-09-04T01:03:27.440Z,24.3
2018-09-04T01:04:16.789Z,24.3
2018-09-04T01:05:08.019Z,24.3
2018-09-04T01:05:57.517Z,24.3
2018-09-04T01:06:48.164Z,24.3
2018-09-04T01:07:38.316Z,24.3
2018-09-04T01:08:27.519Z,24.3
2018-09-04T01:09:17.834Z,24.3
2018-09-04T01:10:08.374Z,24.3
2018-09-04T01:10:58.177Z,24.3
2018-09-04T01:11:48.001Z,24.3
2018-09-04T01:12:38.232Z,24.3
2018-09-04T01:13:28.422Z,24.3
2018-09-04T01:14:19.052Z,24.3
2018-09-04T01:15:08.809Z,24.3
2018-09-04T01:15:58.007Z,24.3
2018-09-04T01:16:48.351Z,24.3
2018-09-04T01:17:38.729Z,24.3
2018-09-04T01:18:29.324Z,24.3
2018-09-04T01:19:18.649Z,24.3
2018-09-04T01:20:09.511Z,24.3
2018-09-04T01:20:59.001Z,24.3
2018-09-04T01:21:48.745Z,24.3
2018-09-04T01:22:39.910Z,24.3
2018-09-04T01:23:28.943Z,24.3
2018-09-04T01:24:19.533Z,24.3
2018-09-04T01:25:09.542Z,24.3
2018-09-04T01:25:58.481Z,24.3
2018-09-04T01:26:49.109Z,24.3
2018-09-04T01:27:39.738Z,24.3
2018-09-04T01:28:29.335Z,24.3
2018-09-04T01:29:19.617Z,24.3
2018-09-04T01:30:10.520Z,24.3
2018-09-04T01:30:59.481Z,24.3
2018-09-04T01:31:49.545Z,24.3
2018-09-04T01:32:40.183Z,24.3
2018-09-04T01:33:30.486Z,24.3
2018-09-04T01:34:20.331Z,24.3
2018-09-04T01:35:10.342Z,24.3
2018-09-04T01:36:00.126Z,24.3
2018-09-04T01:36:49.335Z,24.3
2018-09-04T01:37:40.804Z,24.3
2018-09-04T01:38:29.440Z,24.3
2018-09-04T01:39:20.312Z,24.3
2018-09-04T01:40:10.772Z,24.3
2018-09-04T01:41:00.258Z,24.3
2018-09-04T01:41:50.589Z,24.3
2018-09-04T01:42:41.009Z,24.3
2018-09-04T01:43:29.592Z,24.3
2018-09-04T01:44:20.539Z,24.3
2018-09-04T01:45:10.544Z,24.3
2018-09-04T01:46:00.592Z,24.3
2018-09-04T01:46:51.244Z,24.3
2018-09-04T01:47:40.444Z,24.3
2018-09-04T01:48:31.362Z,24.3
2018-09-04T01:49:21.148Z,24.3
2018-09-04T01:50:11.529Z,24.3
2018-09-04T01:51:01.244Z,24.3
2018-09-04T01:51:51.368Z,24.3
2018-09-04T01:52:41.399Z,24.3
2018-09-04T01:53:31.774Z,24.3
2018-09-04T01:54:21.766Z,24.3
2018-09-04T01:55:11.609Z,24.3
2018-09-04T01:56:01.061Z,24.3
2018-09-04T01:56:52.038Z,24.3
2018-09-04T01:57:41.248Z,24.3
2018-09-04T01:58:32.746Z,24.3
2018-09-04T01:59:21.340Z,24.3
2018-09-04T02:00:11.411Z,24.3
2018-09-04T02:01:01.756Z,24.3
2018-09-04T02:01:51.835Z,24.3
2018-09-04T02:02:42.463Z,24.3
2018-09-04T02:03:32.016Z,24.3
2018-09-04T02:04:22.066Z,24.3
2018-09-04T02:05:13.028Z,24.3
2018-09-04T02:06:02.745Z,24.3
2018-09-04T02:06:51.933Z,24.3
2018-09-04T02:07:42.293Z,24.3
2018-09-04T02:08:32.010Z,24.3
2018-09-04T02:09:22.976Z,24.3
2018-09-04T02:10:12.190Z,24.3
2018-09-04T02:11:03.408Z,24.3
2018-09-04T02:11:53.471Z,24.3
2018-09-04T02:12:42.645Z,24.3
2018-09-04T02:13:32.976Z,24.3
2018-09-04T02:14:23.454Z,24.3
2018-09-04T02:15:12.829Z,24.3
2018-09-04T02:16:03.520Z,24.3
2018-09-04T02:16:53.570Z,24.3
2018-09-04T02:17:43.060Z,24.3
2018-09-04T02:18:33.080Z,24.3
2018-09-04T02:19:23.727Z,24.3
2018-09-04T02:20:13.510Z,24.3
2018-09-04T02:21:03.670Z,24.3
2018-09-04T02:21:53.097Z,24.3
2018-09-04T02:22:43.149Z,24.3
2018-09-04T02:23:33.495Z,24.3
2018-09-04T02:24:23.270Z,24.3
2018-09-04T02:25:13.955Z,24.3
2018-09-04T02:26:04.027Z,24.3
2018-09-04T02:26:54.004Z,24.3
2018-09-04T02:27:44.407Z,24.3
2018-09-04T02:28:33.887Z,24.3
2018-09-04T02:29:24.756Z,24.3
2018-09-04T02:30:14.361Z,24.3
2018-09-04T02:31:04.095Z,24.3
2018-09-04T02:31:54.287Z,24.3
2018-09-04T02:32:43.949Z,24.3
2018-09-04T02:33:34.017Z,24.3
2018-09-04T02:34:24.001Z,24.3
2018-09-04T02:35:14.773Z,24.3
2018-09-04T02:36:04.296Z,24.3
2018-09-04T02:36:54.859Z,24.3
2018-09-04T02:37:44.175Z,24.3
2018-09-04T02:38:35.292Z,24.3
2018-09-04T02:39:25.015Z,24.3
2018-09-04T02:40:14.504Z,24.3
2018-09-04T02:41:05.196Z,24.3
2018-09-04T02:41:55.507Z,24.3
2018-09-04T02:42:44.988Z,24.3
2018-09-04T02:43:35.364Z,24.3
2018-09-04T02:44:25.966Z,24.3
2018-09-04T02:45:15.761Z,24.3
2018-09-04T02:46:05.246Z,24.3
2018-09-04T02:46:55.316Z,24.3
2018-09-04T02:47:45.400Z,24.3
2018-09-04T02:48:36.339Z,24.3
2018-09-04T02:49:25.818Z,24.3
2018-09-04T02:50:16.058Z,24.3
2018-09-04T02:51:06.195Z,24.3
2018-09-04T02:51:56.264Z,24.3
2018-09-04T02:52:46.907Z,24.3
2018-09-04T02:53:35.881Z,24.3
2018-09-04T02:54:25.635Z,24.3
2018-09-04T02:55:16.438Z,24.3
2018-09-04T02:56:06.323Z,24.3
2018-09-04T02:56:56.657Z,24.3
2018-09-04T02:57:46.687Z,24.3
2018-09-04T02:58:35.641Z,24.3
2018-09-04T02:59:26.878Z,24.3
2018-09-04T03:00:16.821Z,24.3
2018-09-04T03:01:07.300Z,24.3
2018-09-04T03:01:56.810Z,24.3
2018-09-04T03:02:46.824Z,24.3
2018-09-04T03:03:36.593Z,24.3
2018-09-04T03:04:27.565Z,24.3
2018-09-04T03:05:18.029Z,24.3
2018-09-04T03:06:06.810Z,24.3
2018-09-04T03:06:57.411Z,24.3
2018-09-04T03:07:47.512Z,24.3
2018-09-04T03:08:36.692Z,24.3
2018-09-04T03:09:26.449Z,24.3
2018-09-04T03:10:16.806Z,24.3
2018-09-04T03:11:07.733Z,24.3
2018-09-04T03:11:58.172Z,24.3
2018-09-04T03:12:47.326Z,24.3
2018-09-04T03:13:40.176Z,24.3
2018-09-04T03:14:27.459Z,24.3
2018-09-04T03:15:17.234Z,24.3
2018-09-04T03:16:07.294Z,24.3
2018-09-04T03:16:57.046Z,24.3
2018-09-04T03:17:47.716Z,24.3
2018-09-04T03:18:37.998Z,24.3
2018-09-04T03:19:27.829Z,24.3
2018-09-04T03:20:18.717Z,24.3
2018-09-04T03:21:08.226Z,24.3
2018-09-04T03:21:57.541Z,24.3
2018-09-04T03:22:48.398Z,24.3
2018-09-04T03:23:38.435Z,24.3
2018-09-04T03:24:28.849Z,24.3
2018-09-04T03:25:19.253Z,24.3
2018-09-04T03:26:08.685Z,24.3
2018-09-04T03:26:58.414Z,24.3
2018-09-04T03:27:48.505Z,24.3
2018-09-04T03:28:39.083Z,24.3
2018-09-04T03:29:28.947Z,24.3
2018-09-04T03:30:19.875Z,24.3
2018-09-04T03:31:09.671Z,24.3
2018-09-04T03:31:58.831Z,24.3
2018-09-04T03:32:48.880Z,24.3
2018-09-04T03:33:38.952Z,24.3
2018-09-04T03:34:29.833Z,24.3
2018-09-04T03:35:19.832Z,24.3
2018-09-04T03:36:09.298Z,24.3
2018-09-04T03:36:59.459Z,24.3
2018-09-04T03:37:49.240Z,24.3
2018-09-04T03:38:40.130Z,24.3
2018-09-04T03:39:29.120Z,24.3
2018-09-04T03:40:20.279Z,24.3
2018-09-04T03:41:10.012Z,24.3
2018-09-04T03:41:59.955Z,24.3
2018-09-04T03:42:49.952Z,24.3
2018-09-04T03:43:39.977Z,24.3
2018-09-04T03:44:30.443Z,24.3
2018-09-04T03:45:20.437Z,24.3
2018-09-04T03:46:09.657Z,24.3
2018-09-04T03:47:00.962Z,24.3
2018-09-04T03:47:49.137Z,24.3
2018-09-04T03:48:40.084Z,24.3
2018-09-04T03:49:29.487Z,24.3
2018-09-04T03:50:20.186Z,24.3
2018-09-04T03:51:10.004Z,24.3
2018-09-04T03:52:00.932Z,24.3
2018-09-04T03:52:50.965Z,24.3
2018-09-04T03:53:40.769Z,24.3
2018-09-04T03:54:31.133Z,24.3
2018-09-04T03:55:20.908Z,24.3
2018-09-04T03:56:11.803Z,24.3
2018-09-04T03:57:01.246Z,24.2
2018-09-04T03:57:51.077Z,24.2
2018-09-04T03:58:41.532Z,24.2
2018-09-04T03:59:31.823Z,24.2
2018-09-04T04:00:20.364Z,24.2
2018-09-04T04:01:11.454Z,24.2
2018-09-04T04:02:01.148Z,24.2
2018-09-04T04:02:51.152Z,24.2
2018-09-04T04:03:40.686Z,24.2
2018-09-04T04:04:32.216Z,24.2
2018-09-04T04:05:21.926Z,24.2
2018-09-04T04:06:11.906Z,24.1
2018-09-04T04:07:02.046Z,24.1
2018-09-04T04:07:51.590Z,24.1
2018-09-04T04:08:41.613Z,24.1
2018-09-04T04:09:31.990Z,24.1
2018-09-04T04:10:21.778Z,24.1
2018-09-04T04:11:12.380Z,24.1
2018-09-04T04:12:03.627Z,24.1
2018-09-04T04:12:52.235Z,24.1
2018-09-04T04:13:42.010Z,24.1
2018-09-04T04:14:32.390Z,24.1
2018-09-04T04:15:22.395Z,24.1
2018-09-04T04:16:13.315Z,24.1
2018-09-04T04:17:01.913Z,24.1
2018-09-04T04:17:52.313Z,24.1
2018-09-04T04:18:42.977Z,24.1
2018-09-04T04:19:33.307Z,24.1
2018-09-04T04:20:23.067Z,24
2018-09-04T04:21:13.147Z,24.1
2018-09-04T04:22:02.622Z,24
2018-09-04T04:22:53.099Z,24
2018-09-04T04:23:42.969Z,24
2018-09-04T04:24:33.142Z,24
2018-09-04T04:25:22.608Z,24
2018-09-04T04:26:13.307Z,23.9
2018-09-04T04:27:03.806Z,24
2018-09-04T04:27:53.399Z,24
2018-09-04T04:28:43.724Z,24
2018-09-04T04:29:33.183Z,24
2018-09-04T04:30:24.175Z,24
2018-09-04T04:31:13.877Z,24
2018-09-04T04:32:03.731Z,23.9
2018-09-04T04:32:53.540Z,23.9
2018-09-04T04:33:44.153Z,23.9
2018-09-04T04:34:33.916Z,23.9
2018-09-04T04:35:24.214Z,23.9
2018-09-04T04:36:14.316Z,23.9
2018-09-04T04:37:03.824Z,23.9
2018-09-04T04:37:54.416Z,23.9
2018-09-04T04:38:44.555Z,23.9
2018-09-04T04:39:34.019Z,23.9
2018-09-04T04:40:24.123Z,23.9
2018-09-04T04:41:14.723Z,23.9
2018-09-04T04:42:04.516Z,23.9
2018-09-04T04:42:53.656Z,23.9
2018-09-04T05:00:35.071Z,23.8
2018-09-04T05:01:22.778Z,23.8
2018-09-04T05:02:12.855Z,23.8
2018-09-04T05:03:03.784Z,23.8
2018-09-04T05:03:52.716Z,23.8
2018-09-04T05:04:43.337Z,23.8
2018-09-04T05:05:34.569Z,23.8
2018-09-04T05:06:24.045Z,23.7
2018-09-04T05:07:13.531Z,23.7
2018-09-04T05:08:03.565Z,23.8
2018-09-04T05:08:53.606Z,23.7
2018-09-04T05:09:44.004Z,23.7
2018-09-04T05:10:33.459Z,23.7
2018-09-04T05:11:25.517Z,23.7
2018-09-04T05:12:14.461Z,23.7
2018-09-04T05:13:03.985Z,23.7
2018-09-04T05:13:53.787Z,23.6
2018-09-04T05:14:44.394Z,23.7
2018-09-04T05:15:34.163Z,23.7
2018-09-04T05:16:24.541Z,23.7
2018-09-04T05:17:13.704Z,23.7
2018-09-04T05:18:04.668Z,23.6
2018-09-04T05:18:54.478Z,23.6
2018-09-04T05:19:44.616Z,23.6
2018-09-04T05:20:34.252Z,23.6
2018-09-04T05:21:24.601Z,23.6
2018-09-04T05:22:14.777Z,23.6
2018-09-04T05:23:04.738Z,23.6
2018-09-04T05:23:54.298Z,23.6
2018-09-04T05:24:44.581Z,23.6
2018-09-04T05:25:35.191Z,23.6
2018-09-04T05:26:25.283Z,23.6
2018-09-04T05:27:14.848Z,23.6
2018-09-04T05:28:03.745Z,23.6
2018-09-04T05:28:56.272Z,23.6
2018-09-04T05:29:45.600Z,23.6
2018-09-04T05:30:35.675Z,23.6
2018-09-04T05:31:25.120Z,23.6
2018-09-04T05:32:15.322Z,23.6
2018-09-04T05:33:04.721Z,23.6
2018-09-04T05:33:55.937Z,23.6
2018-09-04T05:34:45.652Z,23.6
2018-09-04T05:35:36.026Z,23.6
2018-09-04T05:36:26.008Z,23.6
2018-09-04T05:37:15.589Z,23.6
2018-09-04T05:38:05.904Z,23.6
2018-09-04T05:38:56.490Z,23.6
2018-09-04T05:39:45.709Z,23.6
2018-09-04T05:40:36.152Z,23.6
2018-09-04T05:41:25.307Z,23.6
2018-09-04T05:42:16.484Z,23.6
2018-09-04T05:43:06.892Z,23.6
2018-09-04T05:43:56.615Z,23.6
2018-09-04T05:44:46.492Z,23.6
2018-09-04T05:45:36.835Z,23.5
2018-09-04T05:46:26.925Z,23.6
2018-09-04T05:47:16.287Z,23.5
2018-09-04T05:48:06.075Z,23.6
2018-09-04T05:48:56.451Z,23.5
2018-09-04T05:49:47.015Z,23.5
2018-09-04T05:50:36.851Z,23.5
2018-09-04T05:51:25.780Z,23.5
2018-09-04T05:52:16.827Z,23.5
2018-09-04T05:53:07.629Z,23.5
2018-09-04T05:53:57.080Z,23.5
2018-09-04T05:54:47.462Z,23.5
2018-09-04T05:55:37.219Z,23.5
2018-09-04T05:56:27.836Z,23.5
2018-09-04T05:57:17.624Z,23.5
2018-09-04T05:58:06.972Z,23.5
2018-09-04T05:58:56.931Z,23.5
2018-09-04T05:59:48.095Z,23.5
2018-09-04T06:00:37.944Z,23.5
2018-09-04T06:01:28.067Z,23.4
2018-09-04T06:02:18.045Z,23.5
2018-09-04T06:03:07.496Z,23.5
2018-09-04T06:03:58.463Z,23.5
2018-09-04T06:04:47.648Z,23.4
2018-09-04T06:05:37.997Z,23.4
2018-09-04T06:06:28.026Z,23.4
2018-09-04T06:07:18.407Z,23.4
2018-09-04T06:08:08.734Z,23.4
2018-09-04T06:08:57.996Z,23.4
2018-09-04T06:09:48.054Z,23.4
2018-09-04T06:10:38.671Z,23.4
2018-09-04T06:11:29.131Z,23.4
2018-09-04T06:12:18.768Z,23.4
2018-09-04T06:13:09.208Z,23.4
2018-09-04T06:13:58.778Z,23.4
2018-09-04T06:14:49.511Z,23.4
2018-09-04T06:15:38.857Z,23.4
2018-09-04T06:16:28.089Z,23.4
2018-09-04T06:17:18.909Z,23.4
2018-09-04T06:18:09.205Z,23.4
2018-09-04T06:18:58.805Z,23.4
2018-09-04T06:19:49.655Z,23.4
2018-09-04T06:20:39.753Z,23.4
2018-09-04T06:21:28.916Z,23.4
2018-09-04T06:22:19.266Z,23.4
2018-09-04T06:23:10.013Z,23.4
2018-09-04T06:23:59.479Z,23.4
2018-09-04T06:24:50.077Z,23.4
2018-09-04T06:25:40.220Z,23.4
2018-09-04T06:26:30.203Z,23.4
2018-09-04T06:27:19.108Z,23.4
2018-09-04T06:28:10.361Z,23.4
2018-09-04T06:28:59.859Z,23.4
2018-09-04T06:29:50.004Z,23.4
2018-09-04T06:30:39.728Z,23.4
2018-09-04T06:31:30.853Z,23.4
2018-09-04T06:32:20.357Z,23.4
2018-09-04T06:33:11.337Z,23.4
2018-09-04T06:34:00.313Z,23.4
2018-09-04T06:34:49.383Z,23.4
2018-09-04T06:35:41.267Z,23.4
2018-09-04T06:36:31.280Z,23.4
2018-09-04T06:37:21.052Z,23.4
2018-09-04T06:38:11.116Z,23.4
2018-09-04T06:39:00.622Z,23.4
2018-09-04T06:39:50.374Z,23.4
2018-09-04T06:40:40.362Z,23.4
2018-09-04T06:41:30.821Z,23.4
2018-09-04T06:42:21.404Z,23.4
2018-09-04T06:43:10.888Z,23.4
2018-09-04T06:44:00.037Z,23.4
2018-09-04T06:44:50.543Z,23.4
2018-09-04T06:45:41.224Z,23.4
2018-09-04T06:46:32.108Z,23.4
2018-09-04T06:47:21.060Z,23.4
2018-09-04T06:48:11.119Z,23.4
2018-09-04T06:49:00.921Z,23.4
2018-09-04T06:49:51.260Z,23.4
2018-09-04T06:50:41.556Z,23.4
2018-09-04T06:51:31.832Z,23.4
2018-09-04T06:52:21.093Z,23.4
2018-09-04T06:53:11.973Z,23.4
2018-09-04T06:54:01.980Z,23.4
2018-09-04T06:54:51.715Z,23.4
2018-09-04T06:55:42.156Z,23.4
2018-09-04T06:56:31.947Z,23.4
2018-09-04T06:57:22.279Z,23.4
2018-09-04T06:58:11.465Z,23.4
2018-09-04T06:59:01.841Z,23.4
2018-09-04T06:59:52.744Z,23.4
2018-09-04T07:00:42.237Z,23.4
2018-09-04T07:01:31.755Z,23.4
2018-09-04T07:02:21.295Z,23.4
2018-09-04T07:03:12.679Z,23.4
2018-09-04T07:04:02.845Z,23.4
2018-09-04T07:04:52.909Z,23.4
2018-09-04T07:05:41.846Z,23.4
2018-09-04T07:06:31.649Z,23.4
2018-09-04T07:07:22.517Z,23.4
2018-09-04T07:08:12.044Z,23.4
2018-09-04T07:09:03.007Z,23.4
2018-09-04T07:09:52.819Z,23.4
2018-09-04T07:10:42.834Z,23.4
2018-09-04T07:11:33.137Z,23.4
2018-09-04T07:12:22.944Z,23.4
2018-09-04T07:13:13.331Z,23.4
2018-09-04T07:14:03.560Z,23.4
2018-09-04T07:14:53.932Z,23.4
2018-09-04T07:15:43.753Z,23.4
2018-09-04T07:16:33.999Z,23.4
2018-09-04T07:17:24.128Z,23.4
2018-09-04T07:18:13.373Z,23.4
2018-09-04T07:19:04.311Z,23.4
2018-09-04T07:19:53.773Z,23.4
2018-09-04T07:20:44.072Z,23.4
2018-09-04T07:21:33.816Z,23.4
2018-09-04T07:22:24.203Z,23.4
2018-09-04T07:23:14.260Z,23.4
2018-09-04T07:24:04.969Z,23.4
2018-09-04T07:24:54.180Z,23.4
2018-09-04T07:25:44.455Z,23.4
2018-09-04T07:26:34.775Z,23.4
2018-09-04T07:27:23.818Z,23.4
2018-09-04T07:28:14.505Z,23.4
2018-09-04T07:29:03.893Z,23.4
2018-09-04T07:29:55.067Z,23.4
2018-09-04T07:30:44.288Z,23.4
2018-09-04T07:31:35.002Z,23.4
2018-09-04T07:32:24.970Z,23.4
2018-09-04T07:33:15.317Z,23.4
2018-09-04T07:34:04.842Z,23.4
2018-09-04T07:34:55.180Z,23.4
2018-09-04T07:35:45.024Z,23.4
2018-09-04T07:36:36.753Z,23.4
2018-09-04T07:37:24.791Z,23.4
2018-09-04T07:38:15.677Z,23.4
2018-09-04T07:39:05.786Z,23.4
2018-09-04T07:39:55.811Z,23.4
2018-09-04T07:40:45.367Z,23.4
2018-09-04T07:41:36.285Z,23.4
2018-09-04T07:42:25.177Z,23.4
2018-09-04T07:43:15.842Z,23.4
2018-09-04T07:44:04.794Z,23.4
2018-09-04T07:44:55.594Z,23.4
2018-09-04T07:45:46.247Z,23.5
2018-09-04T07:46:35.514Z,23.4
2018-09-04T07:47:25.854Z,23.4
2018-09-04T07:48:16.234Z,23.4
2018-09-04T07:49:05.456Z,23.4
2018-09-04T07:49:56.385Z,23.5
2018-09-04T07:50:46.386Z,23.5
2018-09-04T07:51:36.434Z,23.5
2018-09-04T07:52:26.813Z,23.5
2018-09-04T07:53:16.587Z,23.5
2018-09-04T07:54:06.329Z,23.5
2018-09-04T07:54:56.388Z,23.5
2018-09-04T07:55:47.316Z,23.5
2018-09-04T07:56:37.146Z,23.5
2018-09-04T07:57:26.638Z,23.5
2018-09-04T07:58:16.988Z,23.5
2018-09-04T07:59:07.598Z,23.5
2018-09-04T07:59:56.747Z,23.5
2018-09-04T08:00:46.690Z,23.5
2018-09-04T08:01:37.499Z,23.5
2018-09-04T08:02:26.710Z,23.5
2018-09-04T08:03:16.558Z,23.4
2018-09-04T08:04:06.731Z,23.4
2018-09-04T08:04:56.653Z,23.5
2018-09-04T08:05:46.166Z,23.4
2018-09-04T08:06:37.430Z,23.4
2018-09-04T08:07:27.427Z,23.5
2018-09-04T08:08:16.668Z,23.5
2018-09-04T08:09:06.458Z,23.5
2018-09-04T08:09:57.239Z,23.5
2018-09-04T08:10:47.448Z,23.5
2018-09-04T08:11:37.998Z,23.5
2018-09-04T08:12:28.568Z,23.5
2018-09-04T08:13:18.433Z,23.5
2018-09-04T08:14:08.491Z,23.5
2018-09-04T08:14:57.716Z,23.6
2018-09-04T08:15:48.327Z,23.5
2018-09-04T08:16:38.717Z,23.5
2018-09-04T08:17:28.383Z,23.5
2018-09-04T08:18:17.913Z,23.5
2018-09-04T08:19:08.609Z,23.5
2018-09-04T08:19:58.032Z,23.6
2018-09-04T08:20:50.206Z,23.6
2018-09-04T08:21:39.113Z,23.6
2018-09-04T08:22:28.557Z,23.6
2018-09-04T09:15:03.499Z,23.8
2018-09-04T09:16:08.675Z,23.8
2018-09-04T09:16:43.782Z,23.8
2018-09-04T09:17:33.239Z,23.8
2018-09-04T09:18:24.289Z,23.8
2018-09-04T09:19:14.130Z,23.8
2018-09-04T09:20:03.724Z,23.8
2018-09-04T09:20:53.933Z,23.8
2018-09-04T09:21:43.449Z,23.8
2018-09-04T09:22:34.028Z,23.8
2018-09-04T09:23:24.951Z,23.8
2018-09-04T09:24:14.165Z,23.8
2018-09-04T09:25:04.456Z,23.9
2018-09-04T09:25:54.792Z,23.8
2018-09-04T09:26:44.892Z,23.8
2018-09-04T09:27:34.218Z,23.8
2018-09-04T09:28:24.010Z,23.9
2018-09-04T09:29:13.936Z,23.8
2018-09-04T09:30:04.659Z,23.9
2018-09-04T09:30:54.940Z,23.9
2018-09-04T09:31:44.503Z,23.9
2018-09-04T09:32:34.580Z,23.9
2018-09-04T09:33:24.883Z,23.9
2018-09-04T09:34:15.482Z,23.9
2018-09-04T09:35:05.523Z,23.9
2018-09-04T09:35:54.825Z,23.9
2018-09-04T09:36:47.155Z,23.9
2018-09-04T09:37:35.556Z,23.9
2018-09-04T09:38:25.278Z,23.9
2018-09-04T09:39:15.025Z,23.9
2018-09-04T09:40:05.217Z,23.9
2018-09-04T09:40:53.767Z,23.9
2018-09-04T09:41:45.470Z,23.9
2018-09-04T09:42:35.827Z,23.9
2018-09-04T09:43:25.975Z,23.9
2018-09-04T09:44:15.000Z,23.9
2018-09-04T09:45:06.347Z,23.9
2018-09-04T09:45:55.894Z,23.9
2018-09-04T09:46:45.633Z,23.9
2018-09-04T09:47:36.565Z,23.9
2018-09-04T09:48:26.275Z,23.9
2018-09-04T09:49:16.691Z,23.9
2018-09-04T09:50:04.879Z,23.9
2018-09-04T09:50:57.527Z,23.9
2018-09-04T09:51:46.314Z,23.9
2018-09-04T09:52:38.314Z,23.9
2018-09-04T09:53:30.390Z,23.9
2018-09-04T09:54:16.865Z,23.9
2018-09-04T09:55:06.571Z,23.9
2018-09-04T09:55:56.816Z,23.9
2018-09-04T09:56:47.495Z,23.9
2018-09-04T09:57:36.437Z,23.9
2018-09-04T09:58:25.871Z,23.9
2018-09-04T09:59:17.258Z,23.9
2018-09-04T10:00:08.208Z,23.9
2018-09-04T10:00:58.168Z,23.9
2018-09-04T10:01:47.339Z,23.9
2018-09-04T10:02:37.368Z,23.9
2018-09-04T10:03:27.374Z,23.9
2018-09-04T10:04:19.162Z,23.9
2018-09-04T10:05:07.857Z,23.9
2018-09-04T10:05:56.803Z,24
2018-09-04T10:06:47.210Z,23.9
2018-09-04T10:07:38.570Z,23.9
2018-09-04T10:08:28.172Z,23.9
2018-09-04T10:09:17.184Z,23.9
2018-09-04T10:10:08.402Z,24
2018-09-04T10:10:57.271Z,24
2018-09-04T10:11:47.534Z,24
2018-09-04T10:12:37.554Z,24
2018-09-04T10:13:27.891Z,24
2018-09-04T10:14:18.241Z,24
2018-09-04T10:15:23.509Z,24
2018-09-04T10:15:57.841Z,24
2018-09-04T10:16:48.418Z,24
2018-09-04T10:17:37.975Z,24
2018-09-04T10:18:27.975Z,24
2018-09-04T10:19:17.554Z,24
2018-09-04T10:20:08.798Z,24
2018-09-04T10:20:58.746Z,24
2018-09-04T10:21:48.593Z,24
2018-09-04T10:22:38.610Z,24
2018-09-04T10:23:28.485Z,24
2018-09-04T10:24:18.275Z,24
2018-09-04T10:25:08.250Z,24
2018-09-04T10:25:59.472Z,24
2018-09-04T10:26:48.638Z,24.1
2018-09-04T10:27:39.255Z,24
2018-09-04T10:28:29.139Z,24
2018-09-04T10:29:33.783Z,24
2018-09-04T10:30:09.459Z,24
2018-09-04T10:30:58.675Z,24
2018-09-04T10:31:48.720Z,24
2018-09-04T10:32:39.097Z,24
2018-09-04T10:33:28.664Z,24.1
2018-09-04T10:34:19.262Z,24.1
2018-09-04T10:35:09.322Z,24.1
2018-09-04T10:35:59.560Z,24.1
2018-09-04T10:36:49.695Z,24.1
2018-09-04T10:37:57.272Z,24.1
2018-09-04T16:15:55.424Z,24.5
2018-09-04T16:16:45.489Z,24.5
2018-09-04T16:17:35.007Z,24.5
2018-09-04T16:18:25.694Z,24.5
2018-09-04T16:19:16.202Z,24.5
2018-09-04T16:20:06.956Z,24.5
2018-09-04T16:20:58.930Z,24.5
2018-09-04T16:21:47.567Z,24.5
2018-09-04T16:24:17.793Z,24.5
2018-09-04T16:25:08.614Z,24.5
2018-09-04T16:25:57.271Z,24.5
2018-09-04T16:27:01.698Z,24.5
2018-09-04T16:27:39.156Z,24.5
2018-09-04T16:28:27.634Z,24.5
2018-09-04T16:29:18.828Z,24.5
2018-09-04T16:30:24.158Z,24.5
2018-09-04T16:30:58.799Z,24.5
2018-09-04T16:31:47.991Z,24.5
2018-09-04T16:32:39.306Z,24.5
2018-09-04T16:33:28.142Z,24.5
2018-09-04T16:34:20.633Z,24.5
2018-09-04T16:35:10.421Z,24.5
2018-09-04T16:35:59.503Z,24.5
2018-09-04T16:37:03.388Z,24.5
2018-09-04T16:37:40.374Z,24.5
2018-09-04T16:38:28.882Z,24.5
2018-09-04T16:39:18.322Z,24.5
2018-09-04T16:40:08.247Z,24.5
2018-09-04T16:41:14.247Z,24.5
2018-09-04T16:41:48.745Z,24.5
2018-09-04T16:42:39.762Z,24.5
2018-09-04T16:43:28.420Z,24.5
2018-09-04T16:44:33.319Z,24.5
2018-09-04T16:45:24.245Z,24.5
2018-09-04T16:45:58.902Z,24.5
2018-09-04T16:46:50.080Z,24.5
2018-09-04T16:47:53.656Z,24.5
2018-09-04T16:48:44.199Z,24.5
2018-09-04T16:50:08.667Z,24.5
2018-09-04T16:51:14.844Z,24.5
2018-09-04T16:51:50.398Z,24.5
2018-09-04T16:52:40.163Z,24.4
2018-09-04T16:53:29.719Z,24.5
2018-09-04T16:54:20.054Z,24.4
2018-09-04T16:55:11.128Z,24.5
2018-09-04T16:55:59.186Z,24.5
2018-09-04T16:56:49.224Z,24.5
2018-09-04T16:57:41.151Z,24.5
2018-09-04T16:58:30.638Z,24.5
2018-09-04T16:59:19.122Z,24.5
2018-09-04T17:00:10.481Z,24.5
2018-09-04T17:00:59.820Z,24.5
2018-09-04T17:01:51.255Z,24.5
2018-09-04T17:02:40.730Z,24.5
2018-09-04T17:03:30.584Z,24.5
2018-09-04T17:04:35.739Z,24.4
2018-09-04T17:05:11.947Z,24.5
2018-09-04T17:06:00.967Z,24.5
2018-09-04T17:06:50.279Z,24.5
2018-09-04T17:07:41.400Z,24.5
2018-09-04T17:08:31.804Z,24.4
2018-09-04T17:09:20.891Z,24.4
2018-09-04T17:10:10.213Z,24.4
2018-09-04T17:11:01.748Z,24.5
2018-09-04T17:11:51.082Z,24.5
2018-09-04T17:12:41.555Z,24.4
2018-09-04T17:13:31.142Z,24.5
2018-09-04T17:14:21.238Z,24.4
2018-09-04T17:15:11.640Z,24.4
2018-09-04T17:16:15.876Z,24.4
2018-09-04T17:16:51.077Z,24.4
2018-09-04T17:17:56.580Z,24.4
2018-09-04T17:18:31.016Z,24.4
2018-09-04T17:19:22.479Z,24.4
2018-09-04T17:20:11.815Z,24.4
2018-09-04T17:21:01.978Z,24.4
2018-09-04T17:21:52.575Z,24.4
2018-09-04T17:22:41.500Z,24.4
2018-09-04T17:23:47.858Z,24.4
2018-09-04T17:24:21.919Z,24.4
2018-09-04T17:25:12.370Z,24.4
2018-09-04T17:26:02.491Z,24.4
2018-09-04T17:27:06.802Z,24.4
2018-09-04T17:27:41.876Z,24.4
2018-09-04T17:28:33.497Z,24.4
2018-09-04T17:29:23.311Z,24.4
2018-09-04T17:30:12.610Z,24.4
2018-09-04T17:31:04.498Z,24.4
2018-09-04T17:32:08.122Z,24.4
2018-09-04T17:32:43.494Z,24.4
2018-09-04T17:33:31.873Z,24.4
2018-09-04T17:34:20.425Z,24.4
2018-09-04T17:35:11.405Z,24.4
2018-09-04T17:36:01.727Z,24.4
2018-09-04T17:36:51.793Z,24.4
2018-09-04T17:37:41.516Z,24.4
2018-09-04T17:38:31.609Z,24.4
2018-09-04T17:39:21.403Z,24.4
2018-09-04T17:40:26.122Z,24.4
2018-09-04T17:41:01.316Z,24.4
2018-09-04T17:41:52.441Z,24.4
2018-09-04T17:42:41.903Z,24.4
2018-09-04T17:43:31.988Z,24.4
2018-09-04T17:44:21.483Z,24.4
2018-09-04T17:45:11.856Z,24.4
2018-09-04T17:46:01.635Z,24.4
2018-09-04T17:46:52.073Z,24.4
2018-09-04T17:47:44.168Z,24.4
2018-09-04T17:48:32.499Z,24.4
2018-09-04T17:49:23.566Z,24.4
2018-09-04T17:50:12.288Z,24.4
2018-09-04T17:51:03.162Z,24.4
2018-09-04T17:51:52.668Z,24.4
2018-09-04T17:52:43.029Z,24.4
2018-09-04T17:53:32.545Z,24.4
2018-09-04T17:54:23.475Z,24.4
2018-09-04T17:55:12.968Z,24.3
2018-09-04T17:56:03.296Z,24.4
2018-09-04T17:56:53.056Z,24.4
2018-09-04T17:57:42.581Z,24.3
2018-09-04T17:58:33.200Z,24.3
2018-09-04T17:59:23.563Z,24.3
2018-09-04T18:00:13.607Z,24.3
2018-09-04T18:01:04.808Z,24.3
2018-09-04T18:01:53.446Z,24.3
2018-09-04T18:02:43.487Z,24.3
2018-09-04T18:03:33.607Z,24.3
2018-09-04T18:04:23.337Z,24.3
2018-09-04T18:05:13.757Z,24.3
2018-09-04T18:06:04.385Z,24.3
2018-09-04T18:06:53.302Z,24.3
2018-09-04T18:07:43.971Z,24.3
2018-09-04T18:08:34.041Z,24.3
2018-09-04T18:09:23.956Z,24.3
2018-09-04T18:10:14.214Z,24.3
2018-09-04T18:11:03.413Z,24.3
2018-09-04T18:11:54.465Z,24.3
2018-09-04T18:12:44.955Z,24.3
2018-09-04T18:13:35.130Z,24.3
2018-09-04T18:14:24.868Z,24.3
2018-09-04T18:15:14.383Z,24.3
2018-09-04T18:16:04.069Z,24.3